Time,TemperatureF,DewpointF,PressureIn,WindDirection,WindDirectionDegrees,WindSpeedMPH,WindSpeedGustMPH,Humidity,HourlyPrecipIn,Conditions,Clouds,dailyrainin,SoftwareType,DateUTC
2013-08-01 00:00:00,64.7,63.8,29.86,WNW,296,4.0,9.0,97,0.00,,---,0.00,VWS V14.01,2013-08-01 04:00:00,
2013-08-01 00:01:00,64.7,63.8,29.86,NNW,338,2.0,3.0,97,0.00,,---,0.00,VWS V14.01,2013-08-01 04:01:00,
2013-08-01 00:02:00,64.7,63.8,29.86,WNW,300,8.0,8.0,97,0.00,,---,0.00,VWS V14.01,2013-08-01 04:02:00,
2013-08-01 00:03:00,64.6,63.7,29.86,NW,322,4.0,9.0,97,0.00,,---,0.00,VWS V14.01,2013-08-01 04:03:00,
2013-08-01 00:08:00,64.6,63.7,29.86,NW,304,2.0,9.0,97,0.00,,---,0.00,VWS V14.01,2013-08-01 04:08:00,
2013-08-01 00:13:00,64.5,63.6,29.86,NW,311,3.0,9.0,97,0.00,,---,0.00,VWS V14.01,2013-08-01 04:13:00,
2013-08-01 00:18:00,64.5,63.6,29.86,NW,307,3.0,9.0,97,0.00,,---,0.00,VWS V14.01,2013-08-01 04:18:00,
2013-08-01 00:24:00,64.5,63.6,29.85,NW,309,1.0,9.0,97,0.00,,---,0.00,VWS V14.01,2013-08-01 04:24:00,
2013-08-01 00:29:00,64.5,63.6,29.85,West,273,1.0,9.0,97,0.00,,---,0.00,VWS V14.01,2013-08-01 04:29:00,
2013-08-01 00:34:00,64.4,63.5,29.86,NW,325,2.0,9.0,97,0.00,,---,0.00,VWS V14.01,2013-08-01 04:34:00,
2013-08-01 00:39:00,64.4,63.5,29.86,NW,321,3.0,9.0,97,0.00,,---,0.00,VWS V14.01,2013-08-01 04:39:00,
2013-08-01 00:44:00,64.4,63.5,29.86,NNW,342,1.0,9.0,97,0.00,,---,0.00,VWS V14.01,2013-08-01 04:44:00,
2013-08-01 00:50:00,64.4,63.5,29.86,NW,324,2.0,9.0,97,0.00,,---,0.00,VWS V14.01,2013-08-01 04:50:00,
2013-08-01 00:55:00,64.4,63.5,29.86,NNW,328,3.0,9.0,97,0.00,,---,0.00,VWS V14.01,2013-08-01 04:55:00,
2013-08-01 01:00:00,64.4,63.5,29.86,WNW,285,3.0,9.0,97,0.00,,---,0.00,VWS V14.01,2013-08-01 05:00:00,
2013-08-01 01:05:00,64.4,63.5,29.87,NW,317,2.0,5.0,97,0.00,,---,0.00,VWS V14.01,2013-08-01 05:05:00,
2013-08-01 01:10:00,64.5,63.6,29.87,West,278,2.0,5.0,97,0.00,,---,0.00,VWS V14.01,2013-08-01 05:10:00,
2013-08-01 01:15:00,64.4,63.5,29.86,West,281,1.0,5.0,97,0.00,,---,0.00,VWS V14.01,2013-08-01 05:15:00,
2013-08-01 01:21:00,64.4,63.5,29.86,West,281,0.0,5.0,97,0.00,,---,0.00,VWS V14.01,2013-08-01 05:21:00,
2013-08-01 01:26:00,64.4,63.5,29.86,West,266,1.0,5.0,97,0.00,,---,0.00,VWS V14.01,2013-08-01 05:26:00,
2013-08-01 01:31:00,64.3,63.4,29.86,WSW,256,1.0,5.0,97,0.00,,---,0.00,VWS V14.01,2013-08-01 05:31:00,
2013-08-01 01:36:00,64.4,63.5,29.86,West,268,1.0,5.0,97,0.00,,---,0.00,VWS V14.01,2013-08-01 05:36:00,
2013-08-01 01:42:00,64.4,63.5,29.86,West,270,1.0,5.0,97,0.00,,---,0.00,VWS V14.01,2013-08-01 05:42:00,
2013-08-01 01:47:00,64.4,63.5,29.87,WNW,297,2.0,5.0,97,0.00,,---,0.00,VWS V14.01,2013-08-01 05:47:00,
2013-08-01 01:52:00,64.5,63.6,29.87,NW,309,1.0,5.0,97,0.00,,---,0.00,VWS V14.01,2013-08-01 05:52:00,
2013-08-01 01:57:00,64.5,63.6,29.86,NW,304,4.0,5.0,97,0.00,,---,0.00,VWS V14.01,2013-08-01 05:57:00,
2013-08-01 02:00:00,64.5,63.6,29.86,WNW,288,2.0,5.0,97,0.00,,---,0.00,VWS V14.01,2013-08-01 06:00:00,
2013-08-01 02:02:00,64.5,63.6,29.86,West,278,2.0,5.0,97,0.00,,---,0.00,VWS V14.01,2013-08-01 06:02:00,
2013-08-01 02:08:00,64.5,63.6,29.86,NW,308,2.0,9.0,97,0.00,,---,0.00,VWS V14.01,2013-08-01 06:08:00,
2013-08-01 02:13:00,64.5,63.6,29.86,WNW,300,4.0,9.0,97,0.00,,---,0.00,VWS V14.01,2013-08-01 06:13:00,
2013-08-01 02:18:00,64.5,63.6,29.86,NW,307,1.0,9.0,97,0.00,,---,0.00,VWS V14.01,2013-08-01 06:18:00,
2013-08-01 02:23:00,64.5,63.6,29.86,North,349,3.0,9.0,97,0.00,,---,0.00,VWS V14.01,2013-08-01 06:23:00,
2013-08-01 02:29:00,64.5,63.6,29.86,NNW,342,5.0,9.0,97,0.00,,---,0.00,VWS V14.01,2013-08-01 06:29:00,
2013-08-01 02:33:00,64.5,63.6,29.86,West,268,3.0,9.0,97,0.00,,---,0.00,VWS V14.01,2013-08-01 06:33:00,
2013-08-01 02:39:00,64.5,63.6,29.86,NW,308,1.0,9.0,97,0.00,,---,0.00,VWS V14.01,2013-08-01 06:39:00,
2013-08-01 02:44:00,64.5,63.6,29.85,NW,315,2.0,9.0,97,0.00,,---,0.00,VWS V14.01,2013-08-01 06:44:00,
2013-08-01 02:49:00,64.5,63.6,29.85,WNW,287,3.0,9.0,97,0.00,,---,0.00,VWS V14.01,2013-08-01 06:49:00,
2013-08-01 02:54:00,64.4,63.5,29.85,WNW,295,2.0,9.0,97,0.00,,---,0.00,VWS V14.01,2013-08-01 06:54:00,
2013-08-01 03:00:00,64.5,63.6,29.85,WNW,300,2.0,9.0,97,0.00,,---,0.00,VWS V14.01,2013-08-01 07:00:00,
2013-08-01 03:05:00,64.4,63.5,29.85,NW,305,4.0,5.0,97,0.00,,---,0.00,VWS V14.01,2013-08-01 07:05:00,
2013-08-01 03:10:00,64.4,63.5,29.84,WNW,290,2.0,6.0,97,0.00,,---,0.00,VWS V14.01,2013-08-01 07:10:00,
2013-08-01 03:15:00,64.4,63.5,29.85,NW,304,3.0,6.0,97,0.00,,---,0.00,VWS V14.01,2013-08-01 07:15:00,
2013-08-01 03:20:00,64.4,63.5,29.85,WNW,294,5.0,6.0,97,0.00,,---,0.00,VWS V14.01,2013-08-01 07:20:00,
2013-08-01 03:26:00,64.4,63.5,29.85,WNW,297,2.0,7.0,97,0.00,,---,0.00,VWS V14.01,2013-08-01 07:26:00,
2013-08-01 03:31:00,64.4,63.5,29.85,WNW,293,2.0,8.0,97,0.00,,---,0.00,VWS V14.01,2013-08-01 07:31:00,
2013-08-01 03:36:00,64.4,63.5,29.85,West,278,2.0,8.0,97,0.00,,---,0.00,VWS V14.01,2013-08-01 07:36:00,
2013-08-01 03:41:00,64.3,63.1,29.85,WNW,297,3.0,9.0,96,0.00,,---,0.00,VWS V14.01,2013-08-01 07:41:00,
2013-08-01 03:47:00,64.4,63.2,29.85,NW,309,3.0,9.0,96,0.00,,---,0.00,VWS V14.01,2013-08-01 07:47:00,
2013-08-01 03:52:00,64.3,63.1,29.85,NNW,328,3.0,9.0,96,0.00,,---,0.00,VWS V14.01,2013-08-01 07:52:00,
2013-08-01 03:57:00,64.3,63.1,29.85,North,356,6.0,9.0,96,0.00,,---,0.00,VWS V14.01,2013-08-01 07:57:00,
2013-08-01 04:00:00,64.3,63.1,29.85,WNW,298,7.0,9.0,96,0.00,,---,0.00,VWS V14.01,2013-08-01 08:00:00,
2013-08-01 04:02:00,64.3,63.1,29.85,NW,314,4.0,11.0,96,0.00,,---,0.00,VWS V14.01,2013-08-01 08:02:00,
2013-08-01 04:07:00,64.3,63.1,29.85,WNW,283,3.0,11.0,96,0.00,,---,0.00,VWS V14.01,2013-08-01 08:07:00,
2013-08-01 04:12:00,64.2,63.0,29.86,WNW,298,4.0,11.0,96,0.00,,---,0.00,VWS V14.01,2013-08-01 08:12:00,
2013-08-01 04:18:00,64.1,62.9,29.86,NW,320,2.0,11.0,96,0.00,,---,0.00,VWS V14.01,2013-08-01 08:18:00,
2013-08-01 04:23:00,64.1,62.9,29.86,WNW,285,3.0,11.0,96,0.00,,---,0.00,VWS V14.01,2013-08-01 08:23:00,
2013-08-01 04:28:00,64.0,62.8,29.86,West,276,3.0,11.0,96,0.00,,---,0.00,VWS V14.01,2013-08-01 08:28:00,
2013-08-01 04:33:00,63.9,62.7,29.86,WNW,300,3.0,11.0,96,0.00,,---,0.00,VWS V14.01,2013-08-01 08:33:00,
2013-08-01 04:39:00,63.7,62.5,29.86,NW,307,1.0,11.0,96,0.00,,---,0.00,VWS V14.01,2013-08-01 08:39:00,
2013-08-01 04:44:00,63.7,62.2,29.86,WNW,287,4.0,12.0,95,0.00,,---,0.00,VWS V14.01,2013-08-01 08:44:00,
2013-08-01 04:49:00,63.5,62.0,29.86,WNW,287,5.0,12.0,95,0.00,,---,0.00,VWS V14.01,2013-08-01 08:49:00,
2013-08-01 04:55:00,63.4,62.0,29.86,NW,310,1.0,12.0,95,0.00,,---,0.00,VWS V14.01,2013-08-01 08:55:00,
2013-08-01 05:00:00,63.2,61.8,29.86,NW,314,4.0,12.0,95,0.00,,---,0.00,VWS V14.01,2013-08-01 09:00:00,
2013-08-01 05:05:00,63.0,61.5,29.86,North,352,3.0,4.0,95,0.00,,---,0.00,VWS V14.01,2013-08-01 09:05:00,
2013-08-01 05:11:00,62.8,61.7,29.86,NW,309,0.0,4.0,96,0.00,,---,0.00,VWS V14.01,2013-08-01 09:11:00,
2013-08-01 05:16:00,62.6,61.5,29.86,WNW,298,1.0,4.0,96,0.00,,---,0.00,VWS V14.01,2013-08-01 09:16:00,
2013-08-01 05:22:00,62.5,61.3,29.87,WNW,291,0.0,4.0,96,0.00,,---,0.00,VWS V14.01,2013-08-01 09:22:00,
2013-08-01 05:27:00,62.4,61.2,29.86,West,281,1.0,4.0,96,0.00,,---,0.00,VWS V14.01,2013-08-01 09:27:00,
2013-08-01 05:32:00,62.3,61.2,29.87,West,278,1.0,4.0,96,0.00,,---,0.00,VWS V14.01,2013-08-01 09:32:00,
2013-08-01 05:38:00,62.2,61.3,29.87,NW,326,1.0,4.0,97,0.00,,---,0.00,VWS V14.01,2013-08-01 09:38:00,
2013-08-01 05:43:00,62.1,61.2,29.87,West,276,3.0,5.0,97,0.00,,---,0.00,VWS V14.01,2013-08-01 09:43:00,
2013-08-01 05:48:00,62.1,61.2,29.87,NW,309,2.0,6.0,97,0.00,,---,0.00,VWS V14.01,2013-08-01 09:48:00,
2013-08-01 05:54:00,62.2,61.3,29.87,WNW,296,3.0,9.0,97,0.00,,---,0.00,VWS V14.01,2013-08-01 09:54:00,
2013-08-01 05:59:00,62.2,61.3,29.87,WNW,293,4.0,9.0,97,0.00,,---,0.00,VWS V14.01,2013-08-01 09:59:00,
2013-08-01 06:00:00,62.2,61.3,29.87,West,268,3.0,9.0,97,0.00,,---,0.00,VWS V14.01,2013-08-01 10:00:00,
2013-08-01 06:05:00,62.2,61.3,29.87,WNW,298,3.0,8.0,97,0.00,,---,0.00,VWS V14.01,2013-08-01 10:05:00,
2013-08-01 06:11:00,62.1,61.0,29.87,West,274,4.0,10.0,96,0.00,,---,0.00,VWS V14.01,2013-08-01 10:11:00,
2013-08-01 06:17:00,62.1,61.0,29.87,NW,321,4.0,10.0,96,0.00,,---,0.00,VWS V14.01,2013-08-01 10:17:00,
2013-08-01 06:22:00,62.0,60.8,29.87,West,281,3.0,10.0,96,0.00,,---,0.00,VWS V14.01,2013-08-01 10:22:00,
2013-08-01 06:28:00,62.0,60.8,29.87,NW,305,2.0,10.0,96,0.00,,---,0.00,VWS V14.01,2013-08-01 10:28:00,
2013-08-01 06:33:00,62.0,60.8,29.88,WNW,293,3.0,10.0,96,0.00,,---,0.00,VWS V14.01,2013-08-01 10:33:00,
2013-08-01 06:38:00,62.0,60.8,29.88,West,276,3.0,10.0,96,0.00,,---,0.00,VWS V14.01,2013-08-01 10:38:00,
2013-08-01 06:43:00,61.9,60.8,29.88,WNW,284,3.0,10.0,96,0.00,,---,0.00,VWS V14.01,2013-08-01 10:43:00,
2013-08-01 06:49:00,61.9,60.8,29.88,WSW,250,6.0,10.0,96,0.00,,---,0.00,VWS V14.01,2013-08-01 10:49:00,
2013-08-01 06:54:00,61.9,60.8,29.88,NNW,338,5.0,10.0,96,0.00,,---,0.00,VWS V14.01,2013-08-01 10:54:00,
2013-08-01 07:00:00,62.0,60.8,29.88,WNW,288,3.0,10.0,96,0.00,,---,0.00,VWS V14.01,2013-08-01 11:00:00,
2013-08-01 07:05:00,62.0,60.8,29.89,NW,309,4.0,6.0,96,0.00,,---,0.00,VWS V14.01,2013-08-01 11:05:00,
2013-08-01 07:10:00,62.0,60.8,29.89,WNW,284,3.0,6.0,96,0.00,,---,0.00,VWS V14.01,2013-08-01 11:10:00,
2013-08-01 07:16:00,62.0,60.8,29.88,West,259,3.0,9.0,96,0.00,,---,0.00,VWS V14.01,2013-08-01 11:16:00,
2013-08-01 07:21:00,61.9,60.8,29.88,NW,315,3.0,9.0,96,0.00,,---,0.00,VWS V14.01,2013-08-01 11:21:00,
2013-08-01 07:26:00,62.0,60.8,29.88,West,278,2.0,9.0,96,0.00,,---,0.00,VWS V14.01,2013-08-01 11:26:00,
2013-08-01 07:31:00,62.0,60.8,29.88,NW,304,4.0,9.0,96,0.00,,---,0.00,VWS V14.01,2013-08-01 11:31:00,
2013-08-01 07:37:00,62.0,60.8,29.88,WNW,283,2.0,9.0,96,0.00,,---,0.00,VWS V14.01,2013-08-01 11:37:00,
2013-08-01 07:42:00,62.0,60.8,29.89,West,264,3.0,9.0,96,0.00,,---,0.00,VWS V14.01,2013-08-01 11:42:00,
2013-08-01 07:47:00,62.1,60.7,29.89,WNW,288,4.0,9.0,95,0.00,,---,0.00,VWS V14.01,2013-08-01 11:47:00,
2013-08-01 07:53:00,62.1,60.7,29.89,WNW,295,7.0,9.0,95,0.00,,---,0.00,VWS V14.01,2013-08-01 11:53:00,
2013-08-01 07:59:00,62.1,60.7,29.89,WNW,291,4.0,9.0,95,0.00,,---,0.00,VWS V14.01,2013-08-01 11:59:00,
2013-08-01 08:00:00,62.1,60.7,29.89,WNW,290,2.0,9.0,95,0.00,,---,0.00,VWS V14.01,2013-08-01 12:00:00,
2013-08-01 08:04:00,62.1,60.7,29.89,West,264,1.0,6.0,95,0.00,,---,0.00,VWS V14.01,2013-08-01 12:04:00,
2013-08-01 08:09:00,62.1,60.7,29.89,WSW,256,5.0,9.0,95,0.00,,---,0.00,VWS V14.01,2013-08-01 12:09:00,
2013-08-01 08:15:00,62.1,60.7,29.89,West,281,4.0,9.0,95,0.00,,---,0.00,VWS V14.01,2013-08-01 12:15:00,
2013-08-01 08:20:00,62.1,60.7,29.89,WNW,303,5.0,9.0,95,0.00,,---,0.00,VWS V14.01,2013-08-01 12:20:00,
2013-08-01 08:26:00,62.2,60.8,29.89,WNW,290,7.0,9.0,95,0.00,,---,0.00,VWS V14.01,2013-08-01 12:26:00,
2013-08-01 08:31:00,62.2,60.8,29.89,WNW,282,3.0,9.0,95,0.00,,---,0.00,VWS V14.01,2013-08-01 12:31:00,
2013-08-01 08:37:00,62.2,60.8,29.89,WNW,287,6.0,9.0,95,0.00,,---,0.00,VWS V14.01,2013-08-01 12:37:00,
2013-08-01 08:42:00,62.2,60.8,29.89,West,276,6.0,10.0,95,0.00,,---,0.00,VWS V14.01,2013-08-01 12:42:00,
2013-08-01 08:47:00,62.3,60.8,29.89,WNW,290,3.0,10.0,95,0.00,,---,0.00,VWS V14.01,2013-08-01 12:47:00,
2013-08-01 08:53:00,62.4,61.0,29.89,NW,326,1.0,10.0,95,0.00,,---,0.00,VWS V14.01,2013-08-01 12:53:00,
2013-08-01 08:58:00,62.6,61.2,29.88,WNW,295,3.0,10.0,95,0.00,,---,0.00,VWS V14.01,2013-08-01 12:58:00,
2013-08-01 09:00:00,62.6,61.2,29.88,WNW,296,2.0,10.0,95,0.00,,---,0.00,VWS V14.01,2013-08-01 13:00:00,
2013-08-01 09:03:00,62.8,61.3,29.88,NW,312,3.0,3.0,95,0.00,,---,0.00,VWS V14.01,2013-08-01 13:03:00,
2013-08-01 09:08:00,62.9,61.2,29.88,WSW,256,3.0,6.0,94,0.00,,---,0.00,VWS V14.01,2013-08-01 13:08:00,
2013-08-01 09:14:00,63.3,61.8,29.89,West,264,4.0,6.0,95,0.00,,---,0.00,VWS V14.01,2013-08-01 13:14:00,
2013-08-01 09:19:00,63.3,61.5,29.89,West,269,6.0,6.0,94,0.00,,---,0.00,VWS V14.01,2013-08-01 13:19:00,
2013-08-01 09:24:00,63.3,61.5,29.89,WNW,296,4.0,10.0,94,0.00,,---,0.00,VWS V14.01,2013-08-01 13:24:00,
2013-08-01 09:29:00,63.2,61.2,29.89,West,280,6.0,10.0,93,0.00,,---,0.00,VWS V14.01,2013-08-01 13:29:00,
2013-08-01 09:35:00,63.3,61.2,29.89,WSW,253,5.0,10.0,93,0.00,,---,0.00,VWS V14.01,2013-08-01 13:35:00,
2013-08-01 09:40:00,63.4,61.3,29.89,West,267,3.0,10.0,93,0.00,,---,0.00,VWS V14.01,2013-08-01 13:40:00,
2013-08-01 09:46:00,63.5,61.4,29.89,West,280,3.0,10.0,93,0.00,,---,0.00,VWS V14.01,2013-08-01 13:46:00,
2013-08-01 09:51:00,63.5,61.4,29.89,West,276,4.0,10.0,93,0.00,,---,0.00,VWS V14.01,2013-08-01 13:51:00,
2013-08-01 09:56:00,63.7,61.6,29.89,West,281,6.0,10.0,93,0.00,,---,0.00,VWS V14.01,2013-08-01 13:56:00,
2013-08-01 10:00:00,63.8,61.7,29.89,West,281,2.0,10.0,93,0.00,,---,0.00,VWS V14.01,2013-08-01 14:00:00,
2013-08-01 10:02:00,63.9,61.8,29.89,West,270,3.0,5.0,93,0.00,,---,0.00,VWS V14.01,2013-08-01 14:02:00,
2013-08-01 10:07:00,64.0,61.9,29.89,WSW,249,3.0,6.0,93,0.00,,---,0.00,VWS V14.01,2013-08-01 14:07:00,
2013-08-01 10:12:00,64.3,61.9,29.89,WSW,246,4.0,8.0,92,0.00,,---,0.00,VWS V14.01,2013-08-01 14:12:00,
2013-08-01 10:18:00,64.6,62.2,29.89,West,272,4.0,8.0,92,0.00,,---,0.00,VWS V14.01,2013-08-01 14:18:00,
2013-08-01 10:23:00,65.1,62.4,29.90,West,264,5.0,8.0,91,0.00,,---,0.00,VWS V14.01,2013-08-01 14:23:00,
2013-08-01 10:29:00,65.4,62.4,29.90,West,268,2.0,8.0,90,0.00,,---,0.00,VWS V14.01,2013-08-01 14:29:00,
2013-08-01 10:34:00,65.6,62.9,29.89,WNW,284,5.0,8.0,91,0.00,,---,0.00,VWS V14.01,2013-08-01 14:34:00,
2013-08-01 10:39:00,66.0,62.7,29.90,WSW,248,7.0,10.0,89,0.00,,---,0.00,VWS V14.01,2013-08-01 14:39:00,
2013-08-01 10:45:00,66.1,62.5,29.89,WSW,256,6.0,11.0,88,0.00,,---,0.00,VWS V14.01,2013-08-01 14:45:00,
2013-08-01 10:50:00,66.7,62.7,29.89,WNW,298,2.0,11.0,87,0.00,,---,0.00,VWS V14.01,2013-08-01 14:50:00,
2013-08-01 10:55:00,67.0,61.7,29.89,WSW,256,3.0,11.0,83,0.00,,---,0.00,VWS V14.01,2013-08-01 14:55:00,
2013-08-01 11:00:00,67.3,62.3,29.89,NW,304,5.0,11.0,84,0.00,,---,0.00,VWS V14.01,2013-08-01 15:00:00,
2013-08-01 11:05:00,67.8,63.1,29.89,SW,236,4.0,5.0,85,0.00,,---,0.00,VWS V14.01,2013-08-01 15:05:00,
2013-08-01 11:11:00,68.0,62.7,29.89,WSW,249,4.0,11.0,83,0.00,,---,0.00,VWS V14.01,2013-08-01 15:11:00,
2013-08-01 11:16:00,68.3,62.9,29.89,West,262,7.0,11.0,83,0.00,,---,0.00,VWS V14.01,2013-08-01 15:16:00,
2013-08-01 11:22:00,68.7,64.0,29.89,West,260,3.0,11.0,85,0.00,,---,0.00,VWS V14.01,2013-08-01 15:22:00,
2013-08-01 11:27:00,69.0,62.9,29.89,SW,224,6.0,12.0,81,0.00,,---,0.00,VWS V14.01,2013-08-01 15:27:00,
2013-08-01 11:33:00,68.9,62.5,29.89,WSW,252,5.0,12.0,80,0.00,,---,0.00,VWS V14.01,2013-08-01 15:33:00,
2013-08-01 11:38:00,69.3,63.2,29.89,NW,306,5.0,12.0,81,0.00,,---,0.00,VWS V14.01,2013-08-01 15:38:00,
2013-08-01 11:43:00,69.4,63.0,29.89,West,262,4.0,12.0,80,0.00,,---,0.00,VWS V14.01,2013-08-01 15:43:00,
2013-08-01 11:48:00,69.8,63.7,29.89,WSW,249,8.0,12.0,81,0.00,,---,0.00,VWS V14.01,2013-08-01 15:48:00,
2013-08-01 11:54:00,70.3,63.1,29.89,WNW,283,7.0,12.0,78,0.00,,---,0.00,VWS V14.01,2013-08-01 15:54:00,
2013-08-01 11:59:00,70.6,64.1,29.89,WSW,240,10.0,12.0,80,0.00,,---,0.00,VWS V14.01,2013-08-01 15:59:00,
2013-08-01 12:00:00,70.6,63.0,29.89,SW,225,6.0,12.0,77,0.00,,---,0.00,VWS V14.01,2013-08-01 16:00:00,
2013-08-01 12:05:00,70.8,63.6,29.89,SW,236,5.0,12.0,78,0.00,,---,0.00,VWS V14.01,2013-08-01 16:05:00,
2013-08-01 12:10:00,71.3,63.3,29.89,West,260,7.0,12.0,76,0.00,,---,0.00,VWS V14.01,2013-08-01 16:10:00,
2013-08-01 12:16:00,71.4,63.1,29.89,WSW,257,2.0,12.0,75,0.00,,---,0.00,VWS V14.01,2013-08-01 16:16:00,
2013-08-01 12:21:00,71.8,63.8,29.89,WNW,291,3.0,12.0,76,0.00,,---,0.00,VWS V14.01,2013-08-01 16:21:00,
2013-08-01 12:26:00,72.0,63.7,29.89,West,259,5.0,12.0,75,0.00,,---,0.00,VWS V14.01,2013-08-01 16:26:00,
2013-08-01 12:31:00,72.1,63.0,29.89,WSW,249,4.0,12.0,73,0.00,,---,0.00,VWS V14.01,2013-08-01 16:31:00,
2013-08-01 12:37:00,72.4,63.3,29.89,WNW,286,7.0,12.0,73,0.00,,---,0.00,VWS V14.01,2013-08-01 16:37:00,
2013-08-01 12:42:00,72.6,64.2,29.89,WNW,294,6.0,12.0,75,0.00,,---,0.00,VWS V14.01,2013-08-01 16:42:00,
2013-08-01 12:47:00,72.6,63.1,29.88,West,260,6.0,12.0,72,0.00,,---,0.00,VWS V14.01,2013-08-01 16:47:00,
2013-08-01 12:53:00,72.8,62.5,29.88,NW,314,5.0,12.0,70,0.00,,---,0.00,VWS V14.01,2013-08-01 16:53:00,
2013-08-01 12:59:00,72.8,61.6,29.88,WNW,291,3.0,12.0,68,0.00,,---,0.00,VWS V14.01,2013-08-01 16:59:00,
2013-08-01 13:00:00,72.9,63.3,29.89,WNW,293,6.0,12.0,72,0.00,,---,0.00,VWS V14.01,2013-08-01 17:00:00,
2013-08-01 13:04:00,73.0,61.8,29.88,WNW,295,7.0,14.0,68,0.00,,---,0.00,VWS V14.01,2013-08-01 17:04:00,
2013-08-01 13:10:00,73.0,61.4,29.88,WNW,291,9.0,14.0,67,0.00,,---,0.00,VWS V14.01,2013-08-01 17:10:00,
2013-08-01 13:16:00,73.3,62.5,29.88,NNW,331,5.0,14.0,69,0.00,,---,0.00,VWS V14.01,2013-08-01 17:16:00,
2013-08-01 13:21:00,73.5,61.5,29.88,West,277,6.0,14.0,66,0.00,,---,0.00,VWS V14.01,2013-08-01 17:21:00,
2013-08-01 13:26:00,73.1,61.5,29.88,WNW,294,5.0,14.0,67,0.00,,---,0.00,VWS V14.01,2013-08-01 17:26:00,
2013-08-01 13:32:00,73.0,61.4,29.88,West,271,3.0,14.0,67,0.00,,---,0.00,VWS V14.01,2013-08-01 17:32:00,
2013-08-01 13:37:00,73.0,61.8,29.88,West,273,4.0,14.0,68,0.00,,---,0.00,VWS V14.01,2013-08-01 17:37:00,
2013-08-01 13:42:00,73.7,62.5,29.88,WNW,303,5.0,14.0,68,0.00,,---,0.00,VWS V14.01,2013-08-01 17:42:00,
2013-08-01 13:47:00,73.5,60.6,29.88,West,278,3.0,14.0,64,0.00,,---,0.00,VWS V14.01,2013-08-01 17:47:00,
2013-08-01 13:53:00,72.9,60.5,29.88,NW,304,5.0,14.0,65,0.00,,---,0.00,VWS V14.01,2013-08-01 17:53:00,
2013-08-01 13:58:00,72.7,59.4,29.88,West,271,6.0,14.0,63,0.00,,---,0.00,VWS V14.01,2013-08-01 17:58:00,
2013-08-01 14:00:00,72.8,59.5,29.88,WNW,287,5.0,14.0,63,0.00,,---,0.00,VWS V14.01,2013-08-01 18:00:00,
2013-08-01 14:04:00,73.1,60.2,29.88,West,281,2.0,10.0,64,0.00,,---,0.00,VWS V14.01,2013-08-01 18:04:00,
2013-08-01 14:09:00,73.3,60.0,29.88,West,259,3.0,10.0,63,0.00,,---,0.00,VWS V14.01,2013-08-01 18:09:00,
2013-08-01 14:15:00,73.2,60.3,29.87,WNW,295,4.0,10.0,64,0.00,,---,0.00,VWS V14.01,2013-08-01 18:15:00,
2013-08-01 14:20:00,73.0,57.4,29.87,West,269,3.0,10.0,58,0.00,,---,0.00,VWS V14.01,2013-08-01 18:20:00,
2013-08-01 14:25:00,73.4,60.0,29.87,NNW,338,3.0,10.0,63,0.00,,---,0.00,VWS V14.01,2013-08-01 18:25:00,
2013-08-01 14:30:00,73.9,59.2,29.86,WNW,290,5.0,10.0,60,0.00,,---,0.00,VWS V14.01,2013-08-01 18:30:00,
2013-08-01 14:37:00,74.5,59.7,29.86,WNW,301,4.0,10.0,60,0.00,,---,0.00,VWS V14.01,2013-08-01 18:37:00,
2013-08-01 14:42:00,74.8,59.5,29.86,WNW,302,6.0,10.0,59,0.00,,---,0.00,VWS V14.01,2013-08-01 18:42:00,
2013-08-01 14:47:00,74.9,58.2,29.87,West,264,3.0,10.0,56,0.00,,---,0.00,VWS V14.01,2013-08-01 18:47:00,
2013-08-01 14:52:00,75.2,56.9,29.87,NW,311,3.0,10.0,53,0.00,,---,0.00,VWS V14.01,2013-08-01 18:52:00,
2013-08-01 14:58:00,75.4,57.6,29.87,WSW,255,8.0,10.0,54,0.00,,---,0.00,VWS V14.01,2013-08-01 18:58:00,
2013-08-01 15:00:00,75.6,60.3,29.87,West,280,2.0,10.0,59,0.00,,---,0.00,VWS V14.01,2013-08-01 19:00:00,
2013-08-01 15:03:00,75.7,57.4,29.86,WSW,243,8.0,10.0,53,0.00,,---,0.00,VWS V14.01,2013-08-01 19:03:00,
2013-08-01 15:08:00,75.7,59.4,29.87,WNW,293,6.0,10.0,57,0.00,,---,0.00,VWS V14.01,2013-08-01 19:08:00,
2013-08-01 15:14:00,75.2,56.4,29.87,WSW,238,2.0,10.0,52,0.00,,---,0.00,VWS V14.01,2013-08-01 19:14:00,
2013-08-01 15:19:00,74.7,57.5,29.87,WNW,285,4.0,10.0,55,0.00,,---,0.00,VWS V14.01,2013-08-01 19:19:00,
2013-08-01 15:25:00,74.3,57.6,29.87,NW,321,2.0,10.0,56,0.00,,---,0.00,VWS V14.01,2013-08-01 19:25:00,
2013-08-01 15:30:00,73.8,58.6,29.87,NW,315,8.0,15.0,59,0.00,,---,0.00,VWS V14.01,2013-08-01 19:30:00,
2013-08-01 15:35:00,72.2,58.0,29.88,WNW,291,7.0,15.0,61,0.00,,---,0.00,VWS V14.01,2013-08-01 19:35:00,
2013-08-01 15:41:00,71.0,58.2,29.88,WNW,300,2.0,15.0,64,0.00,,---,0.00,VWS V14.01,2013-08-01 19:41:00,
2013-08-01 15:46:00,70.3,58.0,29.87,NNE,26,2.0,15.0,65,0.00,,---,0.00,VWS V14.01,2013-08-01 19:46:00,
2013-08-01 15:52:00,69.7,57.8,29.87,NNE,26,4.0,15.0,66,0.00,,---,0.00,VWS V14.01,2013-08-01 19:52:00,
2013-08-01 15:57:00,69.4,58.4,29.87,NNE,23,2.0,15.0,68,0.00,,---,0.00,VWS V14.01,2013-08-01 19:57:00,
2013-08-01 16:00:00,69.4,58.4,29.87,NNW,348,7.0,15.0,68,0.00,,---,0.00,VWS V14.01,2013-08-01 20:00:00,
2013-08-01 16:03:00,69.3,58.3,29.87,North,5,3.0,8.0,68,0.00,,---,0.00,VWS V14.01,2013-08-01 20:03:00,
2013-08-01 16:08:00,69.4,58.4,29.86,North,354,4.0,10.0,68,0.00,,---,0.00,VWS V14.01,2013-08-01 20:08:00,
2013-08-01 16:14:00,69.9,58.9,29.86,NNE,25,5.0,12.0,68,0.00,,---,0.00,VWS V14.01,2013-08-01 20:14:00,
2013-08-01 16:19:00,69.5,58.9,29.86,NE,44,5.0,12.0,69,0.00,,---,0.00,VWS V14.01,2013-08-01 20:19:00,
2013-08-01 16:24:00,69.1,59.3,29.86,NE,46,4.0,12.0,71,0.00,,---,0.00,VWS V14.01,2013-08-01 20:24:00,
2013-08-01 16:29:00,68.3,58.5,29.86,NE,46,4.0,12.0,71,0.00,,---,0.00,VWS V14.01,2013-08-01 20:29:00,
2013-08-01 16:35:00,67.7,58.4,29.87,NNE,20,2.0,12.0,72,0.00,,---,0.00,VWS V14.01,2013-08-01 20:35:00,
2013-08-01 16:40:00,67.2,58.6,29.87,WNW,296,3.0,12.0,74,0.00,,---,0.00,VWS V14.01,2013-08-01 20:40:00,
2013-08-01 16:41:00,67.2,58.6,29.88,NNW,332,1.0,12.0,74,0.00,,---,0.00,VWS V14.01,2013-08-01 20:41:00,
2013-08-01 16:46:00,66.4,59.3,29.88,NNE,29,2.0,12.0,78,0.03,,---,0.03,VWS V14.01,2013-08-01 20:46:00,
2013-08-01 16:51:00,65.5,59.5,29.88,West,270,1.0,12.0,81,0.05,,---,0.05,VWS V14.01,2013-08-01 20:51:00,
2013-08-01 16:56:00,64.7,59.8,29.89,SW,232,15.0,18.0,84,0.07,,---,0.07,VWS V14.01,2013-08-01 20:56:00,
2013-08-01 17:00:00,63.5,59.2,29.90,West,270,6.0,19.0,86,0.09,,---,0.09,VWS V14.01,2013-08-01 21:00:00,
2013-08-01 17:02:00,63.2,59.0,29.90,SW,228,8.0,15.0,86,0.10,,---,0.10,VWS V14.01,2013-08-01 21:02:00,
2013-08-01 17:07:00,62.1,58.2,29.89,SW,231,7.0,15.0,87,0.13,,---,0.13,VWS V14.01,2013-08-01 21:07:00,
2013-08-01 18:00:00,61.7,58.1,29.89,SW,225,5.0,15.0,88,0.24,,---,0.24,VWS V14.01,2013-08-01 22:00:00,
2013-08-01 19:00:00,69.9,61.2,29.87,West,270,1.0,3.0,74,0.15,,---,0.24,VWS V14.01,2013-08-01 23:00:00,
2013-08-01 20:00:00,72.0,65.1,29.86,WSW,248,2.0,4.0,79,0.00,,---,0.24,VWS V14.01,2013-08-02 00:00:00,
2013-08-01 21:00:00,68.3,63.3,29.86,SW,225,1.0,5.0,84,0.00,,---,0.24,VWS V14.01,2013-08-02 01:00:00,
2013-08-01 22:00:00,64.7,58.0,29.89,WSW,248,2.0,4.0,79,0.00,,---,0.24,VWS V14.01,2013-08-02 02:00:00,
2013-08-01 23:00:00,61.5,57.0,29.89,WSW,248,0.0,2.0,85,0.00,,---,0.24,VWS V14.01,2013-08-02 03:00:00,